首页
METAR-TAF:

METAR-TAF

机场 :

Naval Station Mayport (Adm. David L. McDonald Field)

Mayport, 佛罗里达州, 美国

纬度: 30-23-45N, 经度: 081-25-21W, 海拔: 5米

当前天气观测

该预报发布于30分钟前的15:52 UTC
风速8节,风向西南
温度 35°C
湿度 50%
气压 1014 hPa
能見度: 16.1公里
少量云层高于4000英尺
少量云层高于15000英尺
散云层高于25000英尺

METAR: KNRB 241552Z 23008KT 10SM FEW040 FEW150 SCT250 35/23 A2995 RMK AO2 SLP140 T03500228 PNO $

时间: 12:22 (16:22 UTC)

预报

预报有效从24日的 15点(UTC)到 25日的 15点(UTC)
风速10节,风向西转西南
能见度10公里或以上
少量云层高于3500英尺
散云层高于12000英尺
散云层高于25000英尺
从 24日的 1900点(UTC)
风速12节,风向东南,有时为20节阵风
能见度10公里或以上
散云层高于4000英尺, 积雨云.
多云层高于15000英尺
多云层高于25000英尺
附近有雷暴
从 25日的 0300点(UTC)
风速9节,风向南转西南
能见度10公里或以上
少量云层高于3000英尺
多云层高于12000英尺
多云层高于20000英尺
附近有阵雨,

TAF: KNRB 2415/2515 25010KT 9999 FEW035 SCT120 SCT250 QNH2988INS FM241900 14012G20KT 9999 VCTS SCT040CB BKN150 BKN250 QNH2984INS FM250300 20009KT 9999 VCSH FEW030 BKN120 BKN200 QNH2988INS TX36/2419Z TN26/2511Z FN20021

超过4000个机场的气象观测和天气预报(METAR&TAF报告)。

可查询的气象台以黄色和红色小点在地图上表示。

将鼠标移到小点上方,可查看气象台名称。

然后点击查看天气观测和预报。

如需切换地图:点击带黑十字的绿色按钮放大地图;点击带横线的绿色按钮缩小地图;或者点击绿色箭头查看邻近地区的地图。


METAR-TAF: